createdAt,value
2023-04-23T00:02:04.543Z,14.10
2023-04-23T00:04:46.727Z,14.10
2023-04-23T00:07:17.507Z,14.10
2023-04-23T00:09:47.474Z,14.10
2023-04-23T00:12:16.298Z,14.00
2023-04-23T00:14:45.011Z,14.10
2023-04-23T00:17:13.357Z,14.00
2023-04-23T00:19:41.696Z,14.00
2023-04-23T00:22:10.030Z,14.00
2023-04-23T00:24:39.779Z,14.00
2023-04-23T00:27:08.276Z,13.90
2023-04-23T00:29:36.659Z,13.90
2023-04-23T00:32:05.310Z,13.90
2023-04-23T00:34:33.603Z,13.90
2023-04-23T00:37:05.892Z,13.90
2023-04-23T00:39:35.281Z,13.80
2023-04-23T00:42:11.579Z,13.80
2023-04-23T00:44:40.938Z,13.80
2023-04-23T00:47:09.668Z,13.80
2023-04-23T00:49:40.192Z,13.80
2023-04-23T00:52:08.583Z,13.80
2023-04-23T00:54:36.881Z,13.80
2023-04-23T00:57:08.081Z,13.80
2023-04-23T00:59:37.355Z,13.70
2023-04-23T01:02:05.927Z,13.70
2023-04-23T01:04:34.911Z,13.70
2023-04-23T01:07:03.757Z,13.60
2023-04-23T01:09:33.597Z,13.60
2023-04-23T01:12:03.728Z,13.60
2023-04-23T01:14:33.800Z,13.60
2023-04-23T01:17:02.209Z,13.60
2023-04-23T01:19:30.892Z,13.60
2023-04-23T01:22:01.297Z,13.50
2023-04-23T01:24:32.340Z,13.50
2023-04-23T01:27:01.807Z,13.50
2023-04-23T01:29:31.216Z,13.50
2023-04-23T01:32:00.501Z,13.40
2023-04-23T01:34:28.875Z,13.40
2023-04-23T01:36:58.197Z,13.40
2023-04-23T01:39:26.780Z,13.40
2023-04-23T01:41:57.410Z,13.40
2023-04-23T01:44:25.869Z,13.40
2023-04-23T01:46:54.806Z,13.40
2023-04-23T01:49:23.237Z,13.30
2023-04-23T01:51:51.554Z,13.30
2023-04-23T01:54:19.893Z,13.30
2023-04-23T01:56:48.233Z,13.30
2023-04-23T01:59:18.011Z,13.30
2023-04-23T02:01:47.391Z,13.20
2023-04-23T02:04:17.300Z,13.20
2023-04-23T02:06:48.329Z,13.20
2023-04-23T02:09:16.710Z,13.10
2023-04-23T02:11:45.162Z,13.10
2023-04-23T02:14:13.846Z,13.10
2023-04-23T02:16:43.584Z,13.10
2023-04-23T02:19:14.106Z,13.10
2023-04-23T02:21:44.385Z,13.10
2023-04-23T02:24:12.649Z,13.00
2023-04-23T02:26:41.095Z,13.00
2023-04-23T02:29:10.561Z,13.00
2023-04-23T02:31:38.933Z,13.00
2023-04-23T02:34:08.607Z,12.90
2023-04-23T02:36:36.912Z,12.90
2023-04-23T02:39:05.500Z,12.90
2023-04-23T02:41:33.783Z,12.90
2023-04-23T02:44:02.087Z,12.90
2023-04-23T02:46:31.832Z,12.90
2023-04-23T02:49:00.265Z,12.80
2023-04-23T02:51:30.032Z,12.80
2023-04-23T02:53:58.581Z,12.80
2023-04-23T02:56:26.956Z,12.80
2023-04-23T02:58:55.280Z,12.80
2023-04-23T03:01:23.630Z,12.80
2023-04-23T03:03:52.535Z,12.70
2023-04-23T03:06:21.226Z,12.70
2023-04-23T03:08:51.007Z,12.70
2023-04-23T03:11:19.319Z,12.70
2023-04-23T03:13:47.643Z,12.70
2023-04-23T03:16:16.136Z,12.70
2023-04-23T03:18:44.506Z,12.70
2023-04-23T03:21:13.016Z,12.70
2023-04-23T03:23:41.451Z,12.70
2023-04-23T03:26:11.273Z,12.60
2023-04-23T03:28:39.591Z,12.70
2023-04-23T03:31:08.070Z,12.60
2023-04-23T03:33:36.530Z,12.60
2023-04-23T03:36:05.323Z,12.60
2023-04-23T03:38:33.641Z,12.60
2023-04-23T03:41:01.950Z,12.60
2023-04-23T03:43:31.571Z,12.60
2023-04-23T03:45:59.988Z,12.60
2023-04-23T03:48:28.348Z,12.60
2023-04-23T03:50:56.703Z,12.60
2023-04-23T03:53:25.103Z,12.60
2023-04-23T03:55:53.459Z,12.60
2023-04-23T03:58:21.722Z,12.70
2023-04-23T04:00:51.855Z,12.70
2023-04-23T04:03:20.311Z,12.70
2023-04-23T04:05:48.762Z,12.70
2023-04-23T04:08:17.145Z,12.70
2023-04-23T04:10:45.491Z,12.70
2023-04-23T04:13:13.793Z,12.80
2023-04-23T04:15:42.025Z,12.80
2023-04-23T04:18:11.823Z,12.80
2023-04-23T04:20:40.160Z,12.80
2023-04-23T04:23:08.438Z,12.80
2023-04-23T04:25:40.016Z,12.90
2023-04-23T04:28:09.525Z,12.90
2023-04-23T04:30:38.241Z,12.90
2023-04-23T04:33:06.617Z,12.90
2023-04-23T04:35:36.445Z,13.00
2023-04-23T04:38:04.838Z,13.00
2023-04-23T04:40:33.861Z,13.10
2023-04-23T04:43:02.309Z,13.10
2023-04-23T04:45:30.636Z,13.20
2023-04-23T04:47:58.964Z,13.20
2023-04-23T04:50:27.383Z,13.30
2023-04-23T04:52:57.231Z,13.30
2023-04-23T04:55:25.739Z,13.40
2023-04-23T04:57:56.513Z,13.50
2023-04-23T05:00:28.019Z,13.60
2023-04-23T05:02:57.552Z,13.70
2023-04-23T05:05:27.793Z,13.80
2023-04-23T05:07:59.412Z,13.80
2023-04-23T05:10:27.723Z,13.90
2023-04-23T05:12:56.075Z,13.90
2023-04-23T05:15:29.373Z,14.00
2023-04-23T05:17:57.872Z,14.10
2023-04-23T05:20:27.362Z,14.20
2023-04-23T05:22:59.484Z,14.20
2023-04-23T05:25:27.983Z,14.30
2023-04-23T05:27:56.393Z,14.50
2023-04-23T05:30:25.482Z,14.50
2023-04-23T05:32:53.940Z,14.60
2023-04-23T05:35:22.448Z,14.80
2023-04-23T05:37:51.464Z,14.90
2023-04-23T05:40:21.361Z,15.00
2023-04-23T05:42:49.699Z,15.00
2023-04-23T05:45:18.048Z,15.10
2023-04-23T05:47:46.392Z,15.10
2023-04-23T05:50:14.733Z,15.20
2023-04-23T05:52:43.074Z,15.30
2023-04-23T05:55:11.931Z,15.40
2023-04-23T05:57:41.578Z,15.50
2023-04-23T06:00:11.939Z,15.50
2023-04-23T06:02:40.649Z,15.60
2023-04-23T06:05:10.204Z,15.70
2023-04-23T06:07:38.865Z,15.70
2023-04-23T06:10:08.533Z,15.80
2023-04-23T06:12:39.307Z,15.80
2023-04-23T06:15:11.459Z,15.80
2023-04-23T06:17:39.965Z,15.90
2023-04-23T06:20:12.017Z,16.00
2023-04-23T06:22:40.570Z,16.10
2023-04-23T06:25:09.745Z,16.20
2023-04-23T06:27:38.034Z,16.20
2023-04-23T06:30:09.269Z,16.30
2023-04-23T06:32:37.708Z,16.30
2023-04-23T06:35:07.621Z,16.40
2023-04-23T06:37:36.720Z,16.40
2023-04-23T06:40:05.520Z,16.40
2023-04-23T06:42:33.918Z,16.50
2023-04-23T06:45:06.281Z,16.50
2023-04-23T06:47:36.269Z,16.50
2023-04-23T06:50:05.876Z,16.60
2023-04-23T06:52:34.172Z,16.60
2023-04-23T06:55:02.461Z,16.60
2023-04-23T06:57:30.758Z,16.70
2023-04-23T06:59:59.086Z,16.70
2023-04-23T07:02:27.563Z,16.70
2023-04-23T07:04:57.348Z,16.80
2023-04-23T07:07:26.127Z,16.90
2023-04-23T07:09:54.457Z,17.00
2023-04-23T07:12:22.763Z,17.00
2023-04-23T07:14:53.630Z,17.00
2023-04-23T07:17:22.089Z,17.10
2023-04-23T07:19:50.727Z,17.20
2023-04-23T07:22:20.486Z,17.20
2023-04-23T07:24:48.870Z,17.30
2023-04-23T07:27:17.219Z,17.30
2023-04-23T07:29:45.610Z,17.40
2023-04-23T07:32:14.067Z,17.40
2023-04-23T07:34:42.806Z,17.50
2023-04-23T07:37:11.821Z,17.50
2023-04-23T07:39:44.007Z,17.60
2023-04-23T07:42:12.734Z,17.60
2023-04-23T07:44:41.246Z,17.70
2023-04-23T07:47:09.649Z,17.80
2023-04-23T07:49:38.066Z,17.90
2023-04-23T07:52:06.439Z,18.00
2023-04-23T07:54:34.811Z,18.00
2023-04-23T07:57:04.532Z,18.10
2023-04-23T07:59:33.999Z,18.10
2023-04-23T08:02:02.363Z,18.10
2023-04-23T08:04:30.891Z,18.10
2023-04-23T08:06:59.692Z,18.20
2023-04-23T08:09:28.066Z,18.20
2023-04-23T08:11:57.675Z,18.20
2023-04-23T08:14:27.515Z,18.30
2023-04-23T08:16:55.898Z,18.40
2023-04-23T08:19:24.263Z,18.40
2023-04-23T08:21:53.221Z,18.40
2023-04-23T08:24:21.667Z,18.40
2023-04-23T08:26:50.032Z,18.50
2023-04-23T08:29:18.351Z,18.50
2023-04-23T08:31:56.222Z,18.60
2023-04-23T08:34:24.529Z,18.60
2023-04-23T08:36:53.036Z,18.70
2023-04-23T08:39:22.094Z,18.70
2023-04-23T08:41:55.976Z,18.80
2023-04-23T08:44:26.366Z,18.90
2023-04-23T08:46:56.867Z,18.90
2023-04-23T08:49:26.624Z,18.90
2023-04-23T08:51:55.704Z,19.00
2023-04-23T08:54:28.054Z,19.10
2023-04-23T08:56:58.797Z,19.10
2023-04-23T08:59:27.992Z,19.20
2023-04-23T09:01:59.855Z,19.20
2023-04-23T09:04:28.793Z,19.30
2023-04-23T09:06:57.592Z,19.30
2023-04-23T09:09:28.722Z,19.40
2023-04-23T09:11:57.676Z,19.40
2023-04-23T09:14:26.800Z,19.50
2023-04-23T09:16:57.333Z,19.60
2023-04-23T09:19:28.712Z,19.60
2023-04-23T09:21:57.518Z,19.60
2023-04-23T09:24:26.536Z,19.70
2023-04-23T09:26:55.175Z,19.80
2023-04-23T09:29:24.565Z,19.90
2023-04-23T09:31:54.411Z,19.90
2023-04-23T09:34:26.654Z,19.90
2023-04-23T09:36:55.609Z,19.90
2023-04-23T09:39:25.128Z,20.00
2023-04-23T09:41:54.545Z,20.00
2023-04-23T09:44:24.108Z,20.10
2023-04-23T09:47:09.829Z,20.20
2023-04-23T09:49:48.820Z,20.20
2023-04-23T09:52:18.291Z,20.20
2023-04-23T09:54:47.861Z,20.30
2023-04-23T09:57:16.283Z,20.30
2023-04-23T09:59:47.643Z,20.40
2023-04-23T10:02:19.166Z,20.50
2023-04-23T10:05:00.704Z,20.50
2023-04-23T10:07:36.026Z,20.60
2023-04-23T10:10:04.662Z,20.70
2023-04-23T10:12:52.069Z,20.70
2023-04-23T10:15:21.711Z,20.80
2023-04-23T10:17:51.457Z,20.80
2023-04-23T10:20:23.419Z,20.90
2023-04-23T10:22:58.038Z,20.90
2023-04-23T10:25:26.682Z,20.90
2023-04-23T10:27:56.486Z,20.90
2023-04-23T10:30:25.104Z,20.90
2023-04-23T10:32:54.101Z,21.00
2023-04-23T10:35:23.894Z,21.00
2023-04-23T10:37:52.859Z,21.10
2023-04-23T10:40:25.860Z,21.20
2023-04-23T10:42:55.634Z,21.20
2023-04-23T10:45:25.570Z,21.40
2023-04-23T10:47:56.458Z,21.40
2023-04-23T10:50:31.264Z,21.50
2023-04-23T10:52:59.573Z,21.60
2023-04-23T10:55:39.562Z,21.70
2023-04-23T10:58:09.003Z,21.70
2023-04-23T11:00:47.733Z,21.60
2023-04-23T11:03:33.178Z,21.60
2023-04-23T11:06:04.891Z,21.70
2023-04-23T11:08:33.721Z,21.70
2023-04-23T11:11:03.234Z,21.80
2023-04-23T11:13:31.827Z,21.90
2023-04-23T11:16:22.650Z,21.90
2023-04-23T11:19:03.725Z,21.90
2023-04-23T11:22:02.396Z,22.00
2023-04-23T11:24:33.433Z,22.10
2023-04-23T11:27:03.052Z,22.10
2023-04-23T11:29:31.637Z,22.20
2023-04-23T11:32:03.454Z,22.20
2023-04-23T11:34:33.476Z,22.20
2023-04-23T11:37:05.118Z,22.30
2023-04-23T11:39:33.867Z,22.20
2023-04-23T11:42:03.542Z,22.30
2023-04-23T11:44:32.380Z,22.30
2023-04-23T11:47:03.097Z,22.40
2023-04-23T11:49:31.539Z,22.50
2023-04-23T11:52:02.983Z,22.50
2023-04-23T11:54:31.477Z,22.50
2023-04-23T11:57:00.139Z,22.60
2023-04-23T11:59:29.599Z,22.60
2023-04-23T12:01:59.597Z,22.70
2023-04-23T12:04:29.564Z,22.70
2023-04-23T12:06:59.088Z,22.70
2023-04-23T12:09:30.137Z,22.80
2023-04-23T12:11:59.430Z,22.80
2023-04-23T12:14:30.125Z,22.90
2023-04-23T12:17:09.567Z,22.90
2023-04-23T12:19:38.416Z,22.90
2023-04-23T12:22:08.569Z,23.00
2023-04-23T12:24:51.558Z,23.00
2023-04-23T12:27:22.318Z,23.10
2023-04-23T12:29:51.250Z,23.20
2023-04-23T12:32:23.064Z,23.20
2023-04-23T12:34:57.218Z,23.10
2023-04-23T12:37:27.279Z,23.10
2023-04-23T12:39:59.486Z,23.10
2023-04-23T12:42:28.050Z,23.00
2023-04-23T12:44:56.753Z,23.10
2023-04-23T12:47:25.205Z,23.20
2023-04-23T12:49:56.833Z,23.30
2023-04-23T12:52:25.202Z,23.30
2023-04-23T12:54:56.582Z,23.50
2023-04-23T12:57:27.708Z,23.50
2023-04-23T12:59:56.601Z,23.70
2023-04-23T13:02:26.771Z,23.60
2023-04-23T13:05:01.012Z,23.70
2023-04-23T13:07:29.663Z,23.70
2023-04-23T13:09:59.650Z,23.80
2023-04-23T13:12:29.394Z,23.90
2023-04-23T13:14:57.911Z,24.10
2023-04-23T13:17:26.713Z,24.20
2023-04-23T13:19:55.706Z,24.40
2023-04-23T13:22:28.534Z,24.50
2023-04-23T13:24:58.177Z,24.60
2023-04-23T13:27:27.094Z,24.60
2023-04-23T13:29:57.175Z,24.50
2023-04-23T13:32:27.465Z,24.50
2023-04-23T13:34:56.085Z,24.50
2023-04-23T13:37:26.586Z,24.60
2023-04-23T13:39:54.968Z,24.70
2023-04-23T13:42:23.303Z,24.80
2023-04-23T13:44:51.633Z,24.80
2023-04-23T13:47:21.440Z,24.90
2023-04-23T13:49:49.833Z,25.00
2023-04-23T13:52:18.358Z,25.00
2023-04-23T13:54:47.875Z,25.10
2023-04-23T13:57:21.554Z,25.30
2023-04-23T13:59:49.938Z,25.50
2023-04-23T14:02:18.417Z,25.90
2023-04-23T14:04:48.225Z,25.80
2023-04-23T14:07:16.596Z,25.80
2023-04-23T14:09:46.624Z,25.60
2023-04-23T14:12:14.986Z,25.50
2023-04-23T14:14:49.792Z,25.40
2023-04-23T14:17:19.345Z,25.40
2023-04-23T14:19:49.250Z,25.30
2023-04-23T14:22:17.576Z,25.30
2023-04-23T14:24:47.774Z,25.60
2023-04-23T14:27:16.178Z,25.50
2023-04-23T14:29:48.993Z,25.70
2023-04-23T14:32:17.404Z,26.30
2023-04-23T14:34:46.005Z,26.20
2023-04-23T14:37:17.598Z,25.90
2023-04-23T14:39:46.698Z,25.90
2023-04-23T14:42:15.165Z,25.80
2023-04-23T14:44:43.475Z,25.50
2023-04-23T14:47:14.993Z,25.30
2023-04-23T14:49:43.549Z,25.00
2023-04-23T14:52:12.166Z,24.80
2023-04-23T14:54:41.863Z,25.10
2023-04-23T14:57:10.157Z,25.40
2023-04-23T14:59:38.516Z,25.00
2023-04-23T15:02:06.944Z,24.90
2023-04-23T15:04:36.745Z,24.60
2023-04-23T15:07:05.076Z,24.50
2023-04-23T15:09:33.843Z,24.40
2023-04-23T15:12:04.710Z,24.40
2023-04-23T15:14:37.788Z,24.30
2023-04-23T15:17:06.133Z,24.10
2023-04-23T15:19:34.468Z,23.80
2023-04-23T15:22:02.974Z,23.60
2023-04-23T15:24:31.230Z,23.30
2023-04-23T15:27:00.871Z,23.10
2023-04-23T15:29:31.270Z,23.00
2023-04-23T15:31:59.752Z,22.80
2023-04-23T15:34:28.224Z,22.60
2023-04-23T15:36:57.087Z,22.50
2023-04-23T15:39:26.376Z,22.40
2023-04-23T15:41:54.712Z,22.30
2023-04-23T15:44:23.983Z,22.10
2023-04-23T15:46:53.708Z,22.10
2023-04-23T15:49:22.011Z,21.90
2023-04-23T15:51:50.404Z,21.90
2023-04-23T15:54:18.770Z,21.80
2023-04-23T15:56:47.099Z,21.70
2023-04-23T15:59:15.483Z,21.60
2023-04-23T16:01:43.992Z,21.50
2023-04-23T16:04:14.035Z,21.40
2023-04-23T16:06:42.460Z,21.30
2023-04-23T16:09:10.738Z,21.30
2023-04-23T16:11:39.782Z,21.20
2023-04-23T16:14:09.457Z,21.20
2023-04-23T16:16:38.800Z,21.10
2023-04-23T16:19:07.304Z,21.00
2023-04-23T16:21:37.100Z,21.00
2023-04-23T16:24:07.698Z,20.90
2023-04-23T16:26:37.539Z,20.80
2023-04-23T16:29:21.396Z,20.70
2023-04-23T16:31:50.859Z,20.60
2023-04-23T16:34:19.231Z,20.60
2023-04-23T16:36:49.010Z,20.50
2023-04-23T16:39:17.389Z,20.40
2023-04-23T16:41:45.947Z,20.30
2023-04-23T16:44:14.334Z,20.30
2023-04-23T16:46:48.556Z,20.20
2023-04-23T16:49:17.096Z,20.10
2023-04-23T16:51:45.366Z,20.10
2023-04-23T16:54:15.180Z,20.00
2023-04-23T16:56:45.410Z,20.00
2023-04-23T16:59:15.379Z,19.90
2023-04-23T17:01:43.835Z,19.90
2023-04-23T17:04:12.436Z,19.80
2023-04-23T17:06:40.980Z,19.80
2023-04-23T17:09:10.465Z,19.80
2023-04-23T17:11:40.172Z,19.70
2023-04-23T17:14:08.506Z,19.70
2023-04-23T17:16:36.953Z,19.60
2023-04-23T17:19:05.366Z,19.50
2023-04-23T17:21:34.495Z,19.50
2023-04-23T17:24:03.327Z,19.40
2023-04-23T17:26:31.628Z,19.40
2023-04-23T17:29:01.377Z,19.30
2023-04-23T17:31:30.463Z,19.30
2023-04-23T17:33:59.258Z,19.20
2023-04-23T17:36:27.688Z,19.20
2023-04-23T17:38:56.136Z,19.10
2023-04-23T17:41:24.640Z,19.10
2023-04-23T17:43:53.349Z,19.00
2023-04-23T17:46:23.182Z,19.00
2023-04-23T17:48:51.661Z,19.00
2023-04-23T17:51:21.571Z,18.90
2023-04-23T17:53:50.995Z,18.90
2023-04-23T17:56:19.364Z,18.90
2023-04-23T17:58:47.778Z,18.90
2023-04-23T18:01:17.803Z,18.80
2023-04-23T18:03:49.174Z,18.70
2023-04-23T18:06:17.709Z,18.70
2023-04-23T18:08:46.170Z,18.70
2023-04-23T18:11:14.582Z,18.60
2023-04-23T18:13:43.525Z,18.60
2023-04-23T18:16:11.900Z,18.60
2023-04-23T18:18:40.215Z,18.50
2023-04-23T18:21:10.238Z,18.50
2023-04-23T18:23:39.712Z,18.40
2023-04-23T18:26:10.027Z,18.40
2023-04-23T18:28:38.808Z,18.30
2023-04-23T18:31:07.546Z,18.30
2023-04-23T18:33:44.287Z,18.20
2023-04-23T18:36:22.255Z,18.20
2023-04-23T18:38:50.867Z,18.10
2023-04-23T18:41:21.952Z,18.10
2023-04-23T18:43:53.379Z,18.10
2023-04-23T18:46:23.250Z,18.00
2023-04-23T18:49:00.426Z,18.00
2023-04-23T18:51:44.051Z,18.00
2023-04-23T18:54:15.008Z,17.90
2023-04-23T18:56:43.542Z,17.90
2023-04-23T18:59:11.874Z,17.90
2023-04-23T19:01:43.525Z,17.90
2023-04-23T19:04:12.197Z,17.90
2023-04-23T19:06:42.329Z,17.80
2023-04-23T19:09:10.910Z,17.80
2023-04-23T19:11:39.327Z,17.70
2023-04-23T19:14:07.789Z,17.70
2023-04-23T19:16:36.353Z,17.70
2023-04-23T19:19:04.885Z,17.70
2023-04-23T19:21:33.750Z,17.70
2023-04-23T19:24:03.663Z,17.70
2023-04-23T19:26:31.986Z,17.60
2023-04-23T19:29:00.516Z,17.60
2023-04-23T19:31:30.309Z,17.60
2023-04-23T19:33:58.620Z,17.50
2023-04-23T19:36:28.625Z,17.50
2023-04-23T19:38:57.174Z,17.50
2023-04-23T19:41:27.163Z,17.40
2023-04-23T19:43:55.616Z,17.40
2023-04-23T19:46:23.977Z,17.30
2023-04-23T19:48:52.277Z,17.30
2023-04-23T19:51:22.084Z,17.30
2023-04-23T19:53:50.363Z,17.20
2023-04-23T19:56:18.645Z,17.20
2023-04-23T19:58:50.544Z,17.20
2023-04-23T20:01:19.383Z,17.20
2023-04-23T20:03:50.876Z,17.20
2023-04-23T20:06:19.281Z,17.20
2023-04-23T20:09:06.231Z,17.20
2023-04-23T20:11:34.849Z,17.10
2023-04-23T20:14:05.326Z,17.10
2023-04-23T20:16:34.484Z,17.10
2023-04-23T20:19:03.559Z,17.10
2023-04-23T20:21:31.932Z,17.10
2023-04-23T20:24:00.299Z,17.00
2023-04-23T20:26:28.640Z,17.00
2023-04-23T20:28:57.556Z,17.00
2023-04-23T20:31:27.425Z,17.00
2023-04-23T20:33:56.119Z,16.90
2023-04-23T20:36:29.014Z,16.90
2023-04-23T20:38:58.098Z,16.90
2023-04-23T20:41:27.267Z,16.80
2023-04-23T20:43:55.583Z,16.90
2023-04-23T20:46:24.409Z,16.80
2023-04-23T20:48:54.255Z,16.80
2023-04-23T20:51:22.602Z,16.80
2023-04-23T20:53:51.510Z,16.80
2023-04-23T20:56:20.120Z,16.70
2023-04-23T20:58:48.745Z,16.70
2023-04-23T21:01:18.046Z,16.70
2023-04-23T21:03:46.581Z,16.70
2023-04-23T21:06:16.643Z,16.70
2023-04-23T21:08:44.965Z,16.60
2023-04-23T21:11:16.408Z,16.60
2023-04-23T21:13:44.954Z,16.60
2023-04-23T21:16:13.819Z,16.60
2023-04-23T21:18:42.438Z,16.60
2023-04-23T21:21:10.846Z,16.60
2023-04-23T21:23:40.731Z,16.60
2023-04-23T21:26:09.179Z,16.60
2023-04-23T21:28:38.025Z,16.60
2023-04-23T21:31:10.873Z,16.60
2023-04-23T21:33:39.423Z,16.60
2023-04-23T21:36:08.196Z,16.50
2023-04-23T21:38:36.541Z,16.50
2023-04-23T21:41:07.730Z,16.60
2023-04-23T21:43:36.574Z,16.50
2023-04-23T21:46:07.590Z,16.50
2023-04-23T21:48:35.939Z,16.50
2023-04-23T21:51:05.128Z,16.50
2023-04-23T21:53:33.418Z,16.50
2023-04-23T21:56:01.802Z,16.50
2023-04-23T21:58:32.642Z,16.50
2023-04-23T22:01:00.948Z,16.50
2023-04-23T22:03:37.719Z,16.50
2023-04-23T22:06:08.452Z,16.50
2023-04-23T22:08:38.265Z,16.50
2023-04-23T22:11:07.055Z,16.50
2023-04-23T22:13:37.271Z,16.50
2023-04-23T22:16:13.381Z,16.50
2023-04-23T22:18:49.040Z,16.60
2023-04-23T22:21:17.362Z,16.60
2023-04-23T22:23:45.610Z,16.60
2023-04-23T22:26:14.057Z,16.60
2023-04-23T22:28:44.401Z,16.60
2023-04-23T22:31:12.847Z,16.60
2023-04-23T22:33:41.130Z,16.70
2023-04-23T22:36:09.643Z,16.70
2023-04-23T22:38:38.028Z,16.70
2023-04-23T22:41:06.886Z,16.60
2023-04-23T22:43:35.185Z,16.70
2023-04-23T22:46:05.147Z,16.70
2023-04-23T22:48:33.774Z,16.70
2023-04-23T22:51:04.608Z,16.70
2023-04-23T22:53:33.475Z,16.70
2023-04-23T22:56:02.062Z,16.70
2023-04-23T22:58:30.460Z,16.80
2023-04-23T23:00:58.788Z,16.70
2023-04-23T23:03:28.581Z,16.70
2023-04-23T23:05:56.970Z,16.80
2023-04-23T23:08:25.286Z,16.70
2023-04-23T23:10:53.630Z,16.70
2023-04-23T23:13:21.872Z,16.80
2023-04-23T23:15:50.226Z,16.70
2023-04-23T23:18:18.613Z,16.70
2023-04-23T23:20:48.362Z,16.70
2023-04-23T23:23:16.735Z,16.70
2023-04-23T23:25:44.984Z,16.70
2023-04-23T23:28:13.321Z,16.70
2023-04-23T23:30:41.952Z,16.70
2023-04-23T23:33:10.295Z,16.70
2023-04-23T23:35:38.552Z,16.70
2023-04-23T23:38:08.326Z,16.70
2023-04-23T23:40:36.844Z,16.70
2023-04-23T23:43:05.134Z,16.70
2023-04-23T23:45:33.537Z,16.60
2023-04-23T23:48:02.143Z,16.60
2023-04-23T23:50:30.655Z,16.60
2023-04-23T23:52:59.364Z,16.60
2023-04-23T23:55:29.233Z,16.60
2023-04-23T23:57:57.651Z,16.60
